createdAt,value
2018-12-11T00:00:29.678Z,1015.3
2018-12-11T00:01:38.339Z,1015.22
2018-12-11T00:02:47.006Z,1015.28
2018-12-11T00:03:55.680Z,1015.24
2018-12-11T00:05:04.355Z,1015.2
2018-12-11T00:06:13.329Z,1015.26
2018-12-11T00:07:22.687Z,1015.27
2018-12-11T00:08:31.359Z,1015.32
2018-12-11T00:09:40.033Z,1015.32
2018-12-11T00:10:48.713Z,1015.42
2018-12-11T00:11:57.373Z,1015.46
2018-12-11T00:13:06.047Z,1015.47
2018-12-11T00:14:14.715Z,1015.39
2018-12-11T00:15:23.390Z,1015.39
2018-12-11T00:16:32.056Z,1015.29
2018-12-11T00:17:40.725Z,1015.2
2018-12-11T00:18:49.647Z,1015.22
2018-12-11T00:19:58.323Z,1015.25
2018-12-11T00:21:06.984Z,1015.27
2018-12-11T00:22:15.649Z,1015.3
2018-12-11T00:23:24.320Z,1015.31
2018-12-11T00:24:32.991Z,1015.32
2018-12-11T00:25:41.664Z,1015.35
2018-12-11T00:26:50.333Z,1015.32
2018-12-11T00:27:59.260Z,1015.28
2018-12-11T00:29:07.948Z,1015.33
2018-12-11T00:30:16.882Z,1015.3
2018-12-11T00:31:25.548Z,1015.3
2018-12-11T00:32:34.220Z,1015.29
2018-12-11T00:33:42.884Z,1015.27
2018-12-11T00:34:51.820Z,1015.22
2018-12-11T00:36:00.498Z,1015.22
2018-12-11T00:37:09.168Z,1015.24
2018-12-11T00:38:17.823Z,1015.2
2018-12-11T00:39:26.495Z,1015.18
2018-12-11T00:40:35.167Z,1015.2
2018-12-11T00:41:43.844Z,1015.21
2018-12-11T00:42:52.516Z,1015.25
2018-12-11T00:44:01.178Z,1015.23
2018-12-11T00:45:09.850Z,1015.22
2018-12-11T00:46:18.771Z,1015.19
2018-12-11T00:47:27.441Z,1015.21
2018-12-11T00:48:36.106Z,1015.13
2018-12-11T00:49:44.778Z,1015.16
2018-12-11T00:50:53.443Z,1015.2
2018-12-11T00:52:02.371Z,1015.16
2018-12-11T00:53:11.032Z,1015.18
2018-12-11T00:54:19.700Z,1015.2
2018-12-11T00:55:28.370Z,1015.23
2018-12-11T00:56:37.035Z,1015.25
2018-12-11T00:57:45.695Z,1015.3
2018-12-11T00:58:54.358Z,1015.27
2018-12-11T01:00:03.021Z,1015.24
2018-12-11T01:01:11.688Z,1015.24
2018-12-11T01:02:20.358Z,1015.3
2018-12-11T01:03:29.022Z,1015.25
2018-12-11T01:04:39.083Z,1015.28
2018-12-11T01:05:47.746Z,1015.29
2018-12-11T01:06:56.417Z,1015.29
2018-12-11T01:08:05.080Z,1015.23
2018-12-11T01:09:13.755Z,1015.34
2018-12-11T01:10:22.671Z,1015.3
2018-12-11T01:11:31.344Z,1015.33
2018-12-11T01:12:40.276Z,1015.32
2018-12-11T01:13:48.952Z,1015.37
2018-12-11T01:14:57.873Z,1015.41
2018-12-11T01:16:06.786Z,1015.41
2018-12-11T01:17:15.462Z,1015.46
2018-12-11T01:18:24.388Z,1015.39
2018-12-11T01:19:33.058Z,1015.41
2018-12-11T01:20:43.166Z,1015.42
2018-12-11T01:21:52.156Z,1015.4
2018-12-11T01:23:00.819Z,1015.38
2018-12-11T01:24:09.491Z,1015.31
2018-12-11T01:25:18.156Z,1015.37
2018-12-11T01:26:26.833Z,1015.34
2018-12-11T01:27:35.495Z,1015.36
2018-12-11T01:28:44.166Z,1015.33
2018-12-11T01:29:52.822Z,1015.33
2018-12-11T01:31:01.754Z,1015.32
2018-12-11T01:32:10.412Z,1015.36
2018-12-11T01:33:19.079Z,1015.37
2018-12-11T01:34:27.748Z,1015.4
2018-12-11T01:35:36.414Z,1015.36
2018-12-11T01:36:45.076Z,1015.32
2018-12-11T01:37:53.743Z,1015.31
2018-12-11T01:39:02.677Z,1015.39
2018-12-11T01:40:11.595Z,1015.39
2018-12-11T01:41:20.272Z,1015.43
2018-12-11T01:42:29.184Z,1015.4
2018-12-11T01:43:37.857Z,1015.39
2018-12-11T01:44:46.517Z,1015.39
2018-12-11T01:45:55.187Z,1015.41
2018-12-11T01:47:04.097Z,1015.45
2018-12-11T01:48:12.774Z,1015.44
2018-12-11T01:49:21.437Z,1015.44
2018-12-11T01:50:30.107Z,1015.42
2018-12-11T01:51:39.088Z,1015.37
2018-12-11T01:52:47.755Z,1015.35
2018-12-11T01:53:56.427Z,1015.35
2018-12-11T01:55:05.098Z,1015.35
2018-12-11T01:56:14.047Z,1015.37
2018-12-11T01:57:22.701Z,1015.4
2018-12-11T01:58:31.375Z,1015.31
2018-12-11T01:59:40.037Z,1015.29
2018-12-11T02:00:48.711Z,1015.3
2018-12-11T02:01:57.369Z,1015.34
2018-12-11T02:03:06.039Z,1015.39
2018-12-11T02:04:14.699Z,1015.32
2018-12-11T02:05:23.382Z,1015.34
2018-12-11T02:06:32.049Z,1015.4
2018-12-11T02:07:40.728Z,1015.37
2018-12-11T02:08:49.645Z,1015.33
2018-12-11T02:09:58.594Z,1015.36
2018-12-11T02:11:07.261Z,1015.4
2018-12-11T02:12:15.934Z,1015.37
2018-12-11T02:13:24.595Z,1015.33
2018-12-11T02:14:33.257Z,1015.34
2018-12-11T02:15:41.932Z,1015.3
2018-12-11T02:16:50.594Z,1015.36
2018-12-11T02:17:59.264Z,1015.39
2018-12-11T02:19:07.924Z,1015.34
2018-12-11T02:20:16.610Z,1015.39
2018-12-11T02:21:25.273Z,1015.39
2018-12-11T02:22:34.213Z,1015.38
2018-12-11T02:23:42.873Z,1015.45
2018-12-11T02:24:51.819Z,1015.49
2018-12-11T02:26:00.485Z,1015.46
2018-12-11T02:27:09.154Z,1015.48
2018-12-11T02:28:17.810Z,1015.51
2018-12-11T02:29:26.477Z,1015.48
2018-12-11T02:30:35.154Z,1015.45
2018-12-11T02:31:43.844Z,1015.44
2018-12-11T02:32:52.512Z,1015.43
2018-12-11T02:34:01.434Z,1015.33
2018-12-11T02:35:10.118Z,1015.42
2018-12-11T02:36:18.828Z,1015.39
2018-12-11T02:37:27.514Z,1015.4
2018-12-11T02:38:36.446Z,1015.4
2018-12-11T02:39:45.116Z,1015.4
2018-12-11T02:40:54.042Z,1015.37
2018-12-11T02:42:02.717Z,1015.45
2018-12-11T02:43:11.642Z,1015.41
2018-12-11T02:44:20.588Z,1015.42
2018-12-11T02:45:29.261Z,1015.48
2018-12-11T02:46:37.943Z,1015.49
2018-12-11T02:47:47.141Z,1015.45
2018-12-11T02:48:55.814Z,1015.51
2018-12-11T02:50:04.486Z,1015.49
2018-12-11T02:51:13.166Z,1015.5
2018-12-11T02:52:21.853Z,1015.47
2018-12-11T02:53:30.522Z,1015.49
2018-12-11T02:54:39.189Z,1015.5
2018-12-11T02:55:48.141Z,1015.47
2018-12-11T02:56:56.823Z,1015.49
2018-12-11T02:58:05.512Z,1015.49
2018-12-11T02:59:14.178Z,1015.49
2018-12-11T03:00:22.849Z,1015.38
2018-12-11T03:01:31.518Z,1015.45
2018-12-11T03:02:40.196Z,1015.47
2018-12-11T03:03:49.130Z,1015.48
2018-12-11T03:04:57.883Z,1015.42
2018-12-11T03:06:06.842Z,1015.43
2018-12-11T03:07:17.383Z,1015.44
2018-12-11T03:08:26.052Z,1015.41
2018-12-11T03:09:34.737Z,1015.4
2018-12-11T03:10:43.411Z,1015.37
2018-12-11T03:11:52.336Z,1015.38
2018-12-11T03:13:01.016Z,1015.4
2018-12-11T03:14:09.689Z,1015.44
2018-12-11T03:15:18.348Z,1015.39
2018-12-11T03:16:27.271Z,1015.37
2018-12-11T03:17:35.946Z,1015.4
2018-12-11T03:18:45.394Z,1015.39
2018-12-11T03:19:54.065Z,1015.36
2018-12-11T03:21:03.004Z,1015.4
2018-12-11T03:22:11.677Z,1015.4
2018-12-11T03:23:20.611Z,1015.4
2018-12-11T03:24:29.799Z,1015.38
2018-12-11T03:25:38.475Z,1015.41
2018-12-11T03:26:47.141Z,1015.4
2018-12-11T03:27:55.823Z,1015.4
2018-12-11T03:29:04.523Z,1015.43
2018-12-11T03:30:13.213Z,1015.33
2018-12-11T03:31:22.735Z,1015.41
2018-12-11T03:32:31.720Z,1015.46
2018-12-11T03:33:40.927Z,1015.42
2018-12-11T03:34:49.603Z,1015.52
2018-12-11T03:35:58.278Z,1015.48
2018-12-11T03:37:06.958Z,1015.51
2018-12-11T03:38:15.632Z,1015.53
2018-12-11T03:39:24.555Z,1015.46
2018-12-11T03:40:33.218Z,1015.53
2018-12-11T03:41:41.904Z,1015.53
2018-12-11T03:42:50.680Z,1015.54
2018-12-11T03:43:59.382Z,1015.54
2018-12-11T03:45:08.066Z,1015.49
2018-12-11T03:46:16.812Z,1015.51
2018-12-11T03:47:25.743Z,1015.47
2018-12-11T03:48:34.413Z,1015.48
2018-12-11T03:49:43.087Z,1015.46
2018-12-11T03:50:52.045Z,1015.46
2018-12-11T03:52:00.738Z,1015.48
2018-12-11T03:53:09.415Z,1015.48
2018-12-11T03:54:18.346Z,1015.46
2018-12-11T03:55:27.067Z,1015.48
2018-12-11T03:56:35.731Z,1015.48
2018-12-11T03:57:44.400Z,1015.49
2018-12-11T03:58:53.329Z,1015.46
2018-12-11T04:00:02.090Z,1015.44
2018-12-11T04:01:11.276Z,1015.38
2018-12-11T04:02:19.963Z,1015.39
2018-12-11T04:03:28.636Z,1015.37
2018-12-11T04:04:37.319Z,1015.36
2018-12-11T04:05:46.232Z,1015.39
2018-12-11T04:06:54.906Z,1015.32
2018-12-11T04:08:03.842Z,1015.36
2018-12-11T04:09:12.773Z,1015.32
2018-12-11T04:10:21.437Z,1015.33
2018-12-11T04:11:30.371Z,1015.29
2018-12-11T04:12:39.050Z,1015.28
2018-12-11T04:13:47.808Z,1015.29
2018-12-11T04:14:56.473Z,1015.35
2018-12-11T04:16:05.141Z,1015.37
2018-12-11T04:17:14.067Z,1015.35
2018-12-11T04:18:22.746Z,1015.35
2018-12-11T04:19:31.419Z,1015.33
2018-12-11T04:20:40.342Z,1015.3
2018-12-11T04:21:49.004Z,1015.27
2018-12-11T04:22:57.693Z,1015.28
2018-12-11T04:24:06.748Z,1015.31
2018-12-11T04:25:15.417Z,1015.28
2018-12-11T04:26:24.084Z,1015.28
2018-12-11T04:27:32.746Z,1015.28
2018-12-11T04:28:41.414Z,1015.32
2018-12-11T04:29:50.085Z,1015.29
2018-12-11T04:30:58.758Z,1015.38
2018-12-11T04:32:07.703Z,1015.38
2018-12-11T04:33:16.635Z,1015.37
2018-12-11T04:34:25.304Z,1015.32
2018-12-11T04:35:33.971Z,1015.32
2018-12-11T04:36:43.134Z,1015.32
2018-12-11T04:37:51.824Z,1015.32
2018-12-11T04:39:00.493Z,1015.32
2018-12-11T04:40:09.422Z,1015.32
2018-12-11T04:41:18.108Z,1015.39
2018-12-11T04:42:26.771Z,1015.36
2018-12-11T04:43:35.452Z,1015.39
2018-12-11T04:44:44.141Z,1015.4
2018-12-11T04:45:52.821Z,1015.39
2018-12-11T04:47:01.499Z,1015.44
2018-12-11T04:48:10.466Z,1015.39
2018-12-11T04:49:19.125Z,1015.41
2018-12-11T04:50:27.796Z,1015.41
2018-12-11T04:51:36.706Z,1015.43
2018-12-11T04:52:45.383Z,1015.44
2018-12-11T04:53:54.300Z,1015.46
2018-12-11T04:55:02.973Z,1015.46
2018-12-11T04:56:11.645Z,1015.47
2018-12-11T04:57:20.304Z,1015.52
2018-12-11T04:58:28.966Z,1015.55
2018-12-11T04:59:37.641Z,1015.54
2018-12-11T05:00:46.576Z,1015.52
2018-12-11T05:01:55.493Z,1015.49
2018-12-11T05:03:04.161Z,1015.47
2018-12-11T05:04:12.817Z,1015.42
2018-12-11T05:05:21.488Z,1015.42
2018-12-11T05:06:30.144Z,1015.46
2018-12-11T05:07:40.059Z,1015.5
2018-12-11T05:08:48.721Z,1015.53
2018-12-11T05:09:57.398Z,1015.58
2018-12-11T05:11:06.066Z,1015.56
2018-12-11T05:12:14.736Z,1015.54
2018-12-11T05:13:23.389Z,1015.52
2018-12-11T05:14:32.060Z,1015.5
2018-12-11T05:15:40.727Z,1015.46
2018-12-11T05:16:49.401Z,1015.47
2018-12-11T05:17:58.077Z,1015.44
2018-12-11T05:19:06.732Z,1015.41
2018-12-11T05:20:15.407Z,1015.49
2018-12-11T05:21:24.610Z,1015.49
2018-12-11T05:22:33.295Z,1015.46
2018-12-11T05:23:41.960Z,1015.43
2018-12-11T05:24:50.638Z,1015.46
2018-12-11T05:25:59.306Z,1015.44
2018-12-11T05:27:07.986Z,1015.42
2018-12-11T05:28:16.649Z,1015.44
2018-12-11T05:29:25.338Z,1015.44
2018-12-11T05:30:34.058Z,1015.48
2018-12-11T05:31:42.741Z,1015.44
2018-12-11T05:32:51.410Z,1015.45
2018-12-11T05:34:00.083Z,1015.45
2018-12-11T05:35:09.257Z,1015.46
2018-12-11T05:36:18.278Z,1015.46
2018-12-11T05:37:26.956Z,1015.5
2018-12-11T05:38:35.629Z,1015.49
2018-12-11T05:39:44.304Z,1015.47
2018-12-11T05:40:52.973Z,1015.46
2018-12-11T05:42:01.647Z,1015.43
2018-12-11T05:43:10.308Z,1015.4
2018-12-11T05:44:18.981Z,1015.34
2018-12-11T05:45:27.896Z,1015.41
2018-12-11T05:46:36.829Z,1015.44
2018-12-11T05:47:45.500Z,1015.44
2018-12-11T05:48:54.674Z,1015.39
2018-12-11T05:50:03.329Z,1015.39
2018-12-11T05:51:13.037Z,1015.39
2018-12-11T05:52:21.761Z,1015.4
2018-12-11T05:53:30.438Z,1015.44
2018-12-11T05:54:39.120Z,1015.43
2018-12-11T05:55:47.783Z,1015.49
2018-12-11T05:56:56.454Z,1015.42
2018-12-11T05:58:05.119Z,1015.45
2018-12-11T05:59:13.797Z,1015.48
2018-12-11T06:00:22.458Z,1015.51
2018-12-11T06:01:31.145Z,1015.49
2018-12-11T06:02:39.807Z,1015.5
2018-12-11T06:03:48.492Z,1015.48
2018-12-11T06:04:57.149Z,1015.52
2018-12-11T06:06:05.818Z,1015.54
2018-12-11T06:07:14.500Z,1015.53
2018-12-11T06:08:23.183Z,1015.53
2018-12-11T06:09:31.849Z,1015.52
2018-12-11T06:10:40.771Z,1015.54
2018-12-11T06:11:49.437Z,1015.57
2018-12-11T06:12:58.350Z,1015.6
2018-12-11T06:14:07.029Z,1015.59
2018-12-11T06:15:15.704Z,1015.57
2018-12-11T06:16:24.627Z,1015.61
2018-12-11T06:17:33.292Z,1015.59
2018-12-11T06:18:41.969Z,1015.56
2018-12-11T06:19:50.635Z,1015.58
2018-12-11T06:20:59.307Z,1015.63
2018-12-11T06:22:07.969Z,1015.6
2018-12-11T06:23:16.647Z,1015.64
2018-12-11T06:24:25.310Z,1015.62
2018-12-11T06:25:33.976Z,1015.65
2018-12-11T06:26:42.638Z,1015.63
2018-12-11T06:27:51.316Z,1015.61
2018-12-11T06:28:59.985Z,1015.6
2018-12-11T06:30:08.672Z,1015.64
2018-12-11T06:31:17.346Z,1015.68
2018-12-11T06:32:26.006Z,1015.65
2018-12-11T06:33:34.671Z,1015.69
2018-12-11T06:34:43.373Z,1015.67
2018-12-11T06:35:52.043Z,1015.7
2018-12-11T06:37:00.961Z,1015.69
2018-12-11T06:38:09.629Z,1015.71
2018-12-11T06:39:18.301Z,1015.72
2018-12-11T06:40:26.978Z,1015.64
2018-12-11T06:41:35.899Z,1015.71
2018-12-11T06:42:44.571Z,1015.72
2018-12-11T06:43:53.238Z,1015.74
2018-12-11T06:45:01.910Z,1015.73
2018-12-11T06:46:10.584Z,1015.75
2018-12-11T06:47:19.249Z,1015.75
2018-12-11T06:48:27.918Z,1015.74
2018-12-11T06:49:36.602Z,1015.74
2018-12-11T06:50:45.279Z,1015.74
2018-12-11T06:51:53.952Z,1015.75
2018-12-11T06:53:02.620Z,1015.78
2018-12-11T06:54:11.539Z,1015.81
2018-12-11T06:55:20.210Z,1015.77
2018-12-11T06:56:28.874Z,1015.75
2018-12-11T06:57:37.796Z,1015.73
2018-12-11T06:58:46.464Z,1015.72
2018-12-11T06:59:55.136Z,1015.74
2018-12-11T07:01:03.804Z,1015.74
2018-12-11T07:02:12.470Z,1015.75
2018-12-11T07:03:21.135Z,1015.76
2018-12-11T07:04:29.812Z,1015.84
2018-12-11T07:05:38.485Z,1015.84
2018-12-11T07:06:47.157Z,1015.81
2018-12-11T07:07:55.832Z,1015.82
2018-12-11T07:09:04.499Z,1015.83
2018-12-11T07:10:13.176Z,1015.85
2018-12-11T07:11:21.846Z,1015.83
2018-12-11T07:12:30.521Z,1015.89
2018-12-11T07:13:39.181Z,1015.86
2018-12-11T07:14:47.849Z,1015.86
2018-12-11T07:15:56.523Z,1015.88
2018-12-11T07:17:05.201Z,1015.89
2018-12-11T07:18:13.864Z,1015.87
2018-12-11T07:19:28.242Z,1015.88
2018-12-11T07:20:37.065Z,1015.95
2018-12-11T07:21:46.021Z,1015.98
2018-12-11T07:22:54.684Z,1015.99
2018-12-11T07:24:03.353Z,1015.99
2018-12-11T07:25:12.024Z,1015.98
2018-12-11T07:26:20.693Z,1015.94
2018-12-11T07:27:29.367Z,1015.91
2018-12-11T07:28:38.037Z,1015.92
2018-12-11T07:29:46.707Z,1015.93
2018-12-11T07:30:55.370Z,1015.96
2018-12-11T07:32:04.113Z,1015.95
2018-12-11T07:33:12.783Z,1015.98
2018-12-11T07:34:21.799Z,1015.99
2018-12-11T07:35:30.476Z,1015.95
2018-12-11T07:36:39.137Z,1015.98
2018-12-11T07:37:47.803Z,1015.97
2018-12-11T07:38:56.463Z,1016.08
2018-12-11T07:40:05.151Z,1016.1
2018-12-11T07:41:13.819Z,1016.14
2018-12-11T07:42:22.740Z,1016.15
2018-12-11T07:43:31.440Z,1016.17
2018-12-11T07:44:40.101Z,1016.12
2018-12-11T07:45:49.275Z,1016.14
2018-12-11T07:46:57.944Z,1016.17
2018-12-11T07:48:06.615Z,1016.17
2018-12-11T07:49:15.275Z,1016.17
2018-12-11T07:50:23.945Z,1016.15
2018-12-11T07:51:32.616Z,1016.12
2018-12-11T07:52:41.295Z,1016.11
2018-12-11T07:53:49.962Z,1016.15
2018-12-11T07:54:58.632Z,1016.14
2018-12-11T07:56:07.298Z,1016.12
2018-12-11T07:57:15.983Z,1016.1
2018-12-11T07:58:24.646Z,1016.13
2018-12-11T07:59:33.321Z,1016.16
2018-12-11T08:00:41.982Z,1016.12
2018-12-11T08:01:50.649Z,1016.13
2018-12-11T08:02:59.389Z,1016.08
2018-12-11T08:04:08.049Z,1016.08
2018-12-11T08:05:16.820Z,1016.12
2018-12-11T08:06:25.493Z,1016.14
2018-12-11T08:07:34.166Z,1016.13
2018-12-11T08:08:42.830Z,1016.2
2018-12-11T08:09:51.500Z,1016.21
2018-12-11T08:11:00.421Z,1016.23
2018-12-11T08:12:09.090Z,1016.21
2018-12-11T08:13:18.017Z,1016.18
2018-12-11T08:14:26.687Z,1016.22
2018-12-11T08:15:35.361Z,1016.2
2018-12-11T08:16:44.289Z,1016.26
2018-12-11T08:17:52.953Z,1016.34
2018-12-11T08:19:01.617Z,1016.34
2018-12-11T08:20:10.284Z,1016.33
2018-12-11T08:21:18.952Z,1016.34
2018-12-11T08:22:27.896Z,1016.32
2018-12-11T08:23:36.576Z,1016.29
2018-12-11T08:24:45.243Z,1016.28
2018-12-11T08:25:53.911Z,1016.25
2018-12-11T08:27:02.585Z,1016.27
2018-12-11T08:28:11.257Z,1016.23
2018-12-11T08:29:19.921Z,1016.26
2018-12-11T08:30:28.581Z,1016.21
2018-12-11T08:31:37.258Z,1016.29
2018-12-11T08:32:46.181Z,1016.29
2018-12-11T08:33:54.850Z,1016.25
2018-12-11T08:35:03.509Z,1016.24
2018-12-11T08:36:12.180Z,1016.24
2018-12-11T08:37:20.852Z,1016.21
2018-12-11T08:38:29.805Z,1016.2
2018-12-11T08:39:38.476Z,1016.23
2018-12-11T08:40:47.136Z,1016.26
2018-12-11T08:41:55.808Z,1016.28
2018-12-11T08:43:04.477Z,1016.26
2018-12-11T08:44:13.405Z,1016.3
2018-12-11T08:45:22.068Z,1016.28
2018-12-11T08:46:30.748Z,1016.24
2018-12-11T08:47:39.747Z,1016.25
2018-12-11T08:48:48.703Z,1016.25
2018-12-11T08:49:57.361Z,1016.23
2018-12-11T08:51:06.043Z,1016.23
2018-12-11T08:52:14.774Z,1016.26
2018-12-11T08:53:23.727Z,1016.28
2018-12-11T08:54:32.396Z,1016.3
2018-12-11T08:55:41.058Z,1016.25
2018-12-11T08:56:49.735Z,1016.26
2018-12-11T08:57:58.448Z,1016.29
2018-12-11T08:59:07.132Z,1016.32
2018-12-11T09:00:15.806Z,1016.37
2018-12-11T09:01:24.490Z,1016.4
2018-12-11T09:02:33.161Z,1016.33
2018-12-11T09:03:41.837Z,1016.27
2018-12-11T09:04:50.760Z,1016.32
2018-12-11T09:05:59.431Z,1016.36
2018-12-11T09:07:08.096Z,1016.33
2018-12-11T09:08:16.788Z,1016.37
2018-12-11T09:09:25.718Z,1016.37
2018-12-11T09:10:34.641Z,1016.37
2018-12-11T09:11:43.351Z,1016.36
2018-12-11T09:12:52.039Z,1016.39
2018-12-11T09:14:00.971Z,1016.4
2018-12-11T09:15:09.645Z,1016.36
2018-12-11T09:16:18.835Z,1016.32
2018-12-11T09:17:27.494Z,1016.38
2018-12-11T09:18:36.182Z,1016.38
2018-12-11T09:19:44.843Z,1016.39
2018-12-11T09:20:53.521Z,1016.43
2018-12-11T09:22:02.232Z,1016.46
2018-12-11T09:23:10.916Z,1016.5
2018-12-11T09:24:19.586Z,1016.53
2018-12-11T09:25:28.558Z,1016.57
2018-12-11T09:26:37.218Z,1016.6
2018-12-11T09:27:45.888Z,1016.6
2018-12-11T09:28:54.559Z,1016.55
2018-12-11T09:30:03.239Z,1016.54
2018-12-11T09:31:11.911Z,1016.51
2018-12-11T09:32:20.583Z,1016.54
2018-12-11T09:33:29.251Z,1016.5
2018-12-11T09:34:37.925Z,1016.41
2018-12-11T09:35:46.603Z,1016.42
2018-12-11T09:36:55.273Z,1016.39
2018-12-11T09:38:03.954Z,1016.41
2018-12-11T09:39:12.624Z,1016.43
2018-12-11T09:40:24.469Z,1016.45
2018-12-11T09:41:33.503Z,1016.52
2018-12-11T09:42:42.222Z,1016.54
2018-12-11T09:43:50.894Z,1016.49
2018-12-11T09:44:59.566Z,1016.51
2018-12-11T09:46:08.238Z,1016.57
2018-12-11T09:47:16.952Z,1016.58
2018-12-11T09:48:25.616Z,1016.56
2018-12-11T09:49:34.294Z,1016.59
2018-12-11T09:50:42.965Z,1016.67
2018-12-11T09:51:51.901Z,1016.74
2018-12-11T09:53:00.579Z,1016.71
2018-12-11T09:54:09.246Z,1016.7
2018-12-11T09:55:17.932Z,1016.71
2018-12-11T09:56:26.608Z,1016.77
2018-12-11T09:57:35.691Z,1016.77
2018-12-11T09:58:44.353Z,1016.77
2018-12-11T09:59:53.030Z,1016.78
2018-12-11T10:01:01.958Z,1016.77
2018-12-11T10:02:10.633Z,1016.75
2018-12-11T10:03:19.296Z,1016.72
2018-12-11T10:04:28.035Z,1016.73
2018-12-11T10:05:36.700Z,1016.73
2018-12-11T10:06:45.370Z,1016.69
2018-12-11T10:07:54.034Z,1016.64
2018-12-11T10:09:02.703Z,1016.65
2018-12-11T10:10:11.380Z,1016.65
2018-12-11T10:11:20.054Z,1016.65
2018-12-11T10:12:28.723Z,1016.67
2018-12-11T10:13:37.391Z,1016.63
2018-12-11T10:14:46.058Z,1016.63
2018-12-11T10:15:54.733Z,1016.64
2018-12-11T10:17:03.402Z,1016.57
2018-12-11T10:18:12.064Z,1016.62
2018-12-11T10:19:20.814Z,1016.61
2018-12-11T10:20:29.486Z,1016.62
2018-12-11T10:21:38.471Z,1016.59
2018-12-11T10:22:47.139Z,1016.62
2018-12-11T10:23:55.820Z,1016.6
2018-12-11T10:25:04.482Z,1016.59
2018-12-11T10:26:14.350Z,1016.59
2018-12-11T10:27:23.020Z,1016.62
2018-12-11T10:28:31.694Z,1016.61
2018-12-11T10:29:40.370Z,1016.65
2018-12-11T10:30:49.028Z,1016.6
2018-12-11T10:31:57.708Z,1016.61
2018-12-11T10:33:06.376Z,1016.58
2018-12-11T10:34:15.058Z,1016.59
2018-12-11T10:35:23.991Z,1016.57
2018-12-11T10:36:32.666Z,1016.56
2018-12-11T10:37:41.333Z,1016.56
2018-12-11T10:38:50.257Z,1016.51
2018-12-11T10:39:58.925Z,1016.53
2018-12-11T10:41:07.852Z,1016.59
2018-12-11T10:42:16.521Z,1016.53
2018-12-11T10:43:25.198Z,1016.56
2018-12-11T10:44:33.865Z,1016.55
2018-12-11T10:45:43.627Z,1016.55
2018-12-11T10:46:52.297Z,1016.54
2018-12-11T10:48:00.960Z,1016.56
2018-12-11T10:49:09.657Z,1016.56
2018-12-11T10:50:18.322Z,1016.58
2018-12-11T10:51:27.258Z,1016.57
2018-12-11T10:52:35.923Z,1016.59
2018-12-11T10:53:44.852Z,1016.55
2018-12-11T10:54:53.520Z,1016.57
2018-12-11T10:56:02.459Z,1016.59
2018-12-11T10:57:11.373Z,1016.6
2018-12-11T10:58:20.055Z,1016.64
2018-12-11T10:59:28.722Z,1016.6
2018-12-11T11:00:37.487Z,1016.62
2018-12-11T11:01:46.195Z,1016.64
2018-12-11T11:02:54.871Z,1016.63
2018-12-11T11:04:03.814Z,1016.61
2018-12-11T11:05:12.481Z,1016.6
2018-12-11T11:06:22.160Z,1016.59
2018-12-11T11:07:43.023Z,1016.6
2018-12-11T11:08:51.716Z,1016.57
2018-12-11T11:10:00.406Z,1016.63
2018-12-11T11:11:09.113Z,1016.6
2018-12-11T11:12:17.787Z,1016.63
2018-12-11T11:13:26.512Z,1016.61
2018-12-11T11:14:35.467Z,1016.6
2018-12-11T11:15:44.167Z,1016.63
2018-12-11T11:16:52.840Z,1016.62
2018-12-11T11:18:01.514Z,1016.65
2018-12-11T11:19:10.194Z,1016.6
2018-12-11T11:20:18.876Z,1016.62
2018-12-11T11:21:27.652Z,1016.62
2018-12-11T11:22:36.439Z,1016.59
2018-12-11T11:23:45.383Z,1016.62
2018-12-11T11:24:54.051Z,1016.71
2018-12-11T11:26:02.735Z,1016.63
2018-12-11T11:27:11.407Z,1016.6
2018-12-11T11:28:20.081Z,1016.59
2018-12-11T11:29:29.025Z,1016.56
2018-12-11T11:30:37.687Z,1016.61
2018-12-11T11:31:46.369Z,1016.67
2018-12-11T11:32:55.036Z,1016.67
2018-12-11T11:34:03.980Z,1016.66
2018-12-11T11:35:12.648Z,1016.64
2018-12-11T11:36:21.404Z,1016.65
2018-12-11T11:37:30.902Z,1016.65
2018-12-11T11:38:39.891Z,1016.63
2018-12-11T11:39:48.596Z,1016.59
2018-12-11T11:40:57.346Z,1016.6
2018-12-11T11:42:06.107Z,1016.53
2018-12-11T11:43:14.768Z,1016.54
2018-12-11T11:44:23.443Z,1016.52
2018-12-11T11:45:32.171Z,1016.54
2018-12-11T11:46:41.364Z,1016.6
2018-12-11T11:47:50.302Z,1016.55
2018-12-11T11:48:58.989Z,1016.52
2018-12-11T11:50:07.649Z,1016.54
2018-12-11T11:51:16.354Z,1016.5
2018-12-11T11:52:25.019Z,1016.51
2018-12-11T11:53:33.968Z,1016.54
2018-12-11T11:54:42.643Z,1016.5
2018-12-11T11:55:51.574Z,1016.49
2018-12-11T11:57:00.239Z,1016.53
2018-12-11T11:58:08.915Z,1016.53
2018-12-11T11:59:17.592Z,1016.55
2018-12-11T12:00:26.266Z,1016.62
2018-12-11T12:01:34.940Z,1016.57
2018-12-11T12:02:43.604Z,1016.58
2018-12-11T12:03:52.293Z,1016.63
2018-12-11T12:05:00.991Z,1016.61
2018-12-11T12:06:10.170Z,1016.63
2018-12-11T12:07:18.834Z,1016.6
2018-12-11T12:08:27.509Z,1016.57
2018-12-11T12:09:36.441Z,1016.6
2018-12-11T12:10:45.125Z,1016.55
2018-12-11T12:11:53.783Z,1016.62
2018-12-11T12:13:02.457Z,1016.64
2018-12-11T12:14:11.124Z,1016.64
2018-12-11T12:15:19.815Z,1016.6
2018-12-11T12:16:28.486Z,1016.61
2018-12-11T12:17:37.411Z,1016.61
2018-12-11T12:18:46.080Z,1016.56
2018-12-11T12:19:54.765Z,1016.56
2018-12-11T12:21:03.443Z,1016.58
2018-12-11T12:22:12.106Z,1016.57
2018-12-11T12:23:21.599Z,1016.56
2018-12-11T12:24:30.256Z,1016.58
2018-12-11T12:25:38.936Z,1016.59
2018-12-11T12:26:47.617Z,1016.58
2018-12-11T12:27:56.412Z,1016.54
2018-12-11T12:29:05.186Z,1016.55
2018-12-11T12:30:13.980Z,1016.58
2018-12-11T12:31:22.783Z,1016.54
2018-12-11T12:32:31.717Z,1016.56
2018-12-11T12:33:40.386Z,1016.53
2018-12-11T12:34:50.551Z,1016.51
2018-12-11T12:35:59.221Z,1016.51
2018-12-11T12:37:07.895Z,1016.54
2018-12-11T12:38:16.570Z,1016.54
2018-12-11T12:39:25.236Z,1016.51
2018-12-11T12:40:33.922Z,1016.51
2018-12-11T12:41:42.601Z,1016.48
2018-12-11T12:42:51.363Z,1016.49
2018-12-11T12:44:00.027Z,1016.57
2018-12-11T12:45:08.950Z,1016.51
2018-12-11T12:46:17.666Z,1016.6
2018-12-11T12:47:26.367Z,1016.54
2018-12-11T12:48:35.297Z,1016.54
2018-12-11T12:49:50.351Z,1016.51
2018-12-11T12:50:59.391Z,1016.5
2018-12-11T12:52:08.497Z,1016.56
2018-12-11T12:53:17.180Z,1016.5
2018-12-11T12:54:25.859Z,1016.52
2018-12-11T12:55:34.529Z,1016.55
2018-12-11T12:56:43.197Z,1016.53
2018-12-11T12:57:51.875Z,1016.56
2018-12-11T12:59:00.537Z,1016.55
2018-12-11T13:00:09.213Z,1016.53
2018-12-11T13:01:18.135Z,1016.52
2018-12-11T13:02:26.818Z,1016.54
2018-12-11T13:03:35.494Z,1016.52
2018-12-11T13:04:44.180Z,1016.52
2018-12-11T13:05:52.856Z,1016.5
2018-12-11T13:07:01.531Z,1016.45
2018-12-11T13:08:10.214Z,1016.42
2018-12-11T13:09:18.884Z,1016.44
2018-12-11T13:10:27.863Z,1016.44
2018-12-11T13:11:36.811Z,1016.41
2018-12-11T13:12:45.482Z,1016.43
2018-12-11T13:13:54.174Z,1016.43
2018-12-11T13:15:07.019Z,1016.42
2018-12-11T13:16:16.195Z,1016.36
2018-12-11T13:17:24.879Z,1016.48
2018-12-11T13:18:33.554Z,1016.45
2018-12-11T13:19:42.230Z,1016.48
2018-12-11T13:20:50.893Z,1016.42
2018-12-11T13:21:59.569Z,1016.39
2018-12-11T13:23:08.241Z,1016.39
2018-12-11T13:24:16.909Z,1016.42
2018-12-11T13:25:25.589Z,1016.4
2018-12-11T13:26:34.259Z,1016.45
2018-12-11T13:27:42.927Z,1016.44
2018-12-11T13:28:51.588Z,1016.42
2018-12-11T13:30:00.268Z,1016.43
2018-12-11T13:31:08.953Z,1016.38
2018-12-11T13:32:17.903Z,1016.45
2018-12-11T13:33:26.579Z,1016.47
2018-12-11T13:34:35.243Z,1016.45
2018-12-11T13:35:44.086Z,1016.48
2018-12-11T13:36:52.762Z,1016.5
2018-12-11T13:38:01.445Z,1016.51
2018-12-11T13:39:10.325Z,1016.52
2018-12-11T13:40:19.068Z,1016.53
2018-12-11T13:41:27.768Z,1016.57
2018-12-11T13:42:36.456Z,1016.55
2018-12-11T13:43:45.541Z,1016.55
2018-12-11T13:44:54.473Z,1016.58
2018-12-11T13:46:03.139Z,1016.55
2018-12-11T13:47:12.007Z,1016.5
2018-12-11T13:48:23.410Z,1016.55
2018-12-11T13:49:32.220Z,1016.58
2018-12-11T13:50:40.955Z,1016.55
2018-12-11T13:51:49.630Z,1016.61
2018-12-11T13:52:58.314Z,1016.58
2018-12-11T13:54:06.982Z,1016.64
2018-12-11T13:55:15.652Z,1016.61